Time;durP1;ratioP1;P1;durP2;ratioP2;P2;SDS_P1;SDS_P2;PMS_P1;PMS_P2;Temp;Humidity;BMP_temperature;BMP_pressure;BME280_temperature;BME280_humidity;BME280_pressure;Samples;Min_cycle;Max_cycle;Signal;HPM_P1;HPM_P2
2022/08/02 00:00:00;;;;;;;3.73;3.17;;;17.50;99.90;;;;;;5095263;28;21107;-77
2022/08/02 00:02:27;;;;;;;5.63;3.30;;;17.50;99.90;;;;;;5090415;28;20489;-81
2022/08/02 00:04:54;;;;;;;6.00;3.27;;;17.50;99.90;;;;;;5093613;28;20514;-79
2022/08/02 00:07:21;;;;;;;5.43;3.20;;;17.40;99.90;;;;;;5095069;28;20543;-79
2022/08/02 00:09:47;;;;;;;4.40;2.70;;;17.40;99.90;;;;;;5087734;28;20809;-80
2022/08/02 00:12:14;;;;;;;3.93;2.93;;;17.40;99.90;;;;;;5095268;28;20540;-78
2022/08/02 00:14:41;;;;;;;3.87;2.80;;;17.30;99.90;;;;;;5093275;28;21005;-80
2022/08/02 00:17:10;;;;;;;4.73;3.07;;;17.40;99.90;;;;;;5087849;28;20892;-81
2022/08/02 00:19:36;;;;;;;5.53;3.50;;;17.30;99.90;;;;;;5102101;28;20471;-79
2022/08/02 00:22:03;;;;;;;5.33;2.90;;;17.30;99.90;;;;;;5099684;28;20955;-79
2022/08/02 00:24:30;;;;;;;4.07;3.20;;;17.30;99.90;;;;;;5094520;28;20950;-78
2022/08/02 00:26:57;;;;;;;4.80;3.50;;;17.30;99.90;;;;;;5096126;28;20544;-79
2022/08/02 00:29:24;;;;;;;5.47;3.63;;;17.30;99.90;;;;;;5093573;28;20552;-79
2022/08/02 00:31:51;;;;;;;6.50;3.50;;;17.20;99.90;;;;;;5095628;28;20474;-78
2022/08/02 00:34:19;;;;;;;4.00;3.10;;;17.20;99.90;;;;;;5094929;28;20511;-79
2022/08/02 00:36:46;;;;;;;4.17;3.10;;;17.20;99.90;;;;;;5105469;28;20541;-79
2022/08/02 00:39:13;;;;;;;6.17;3.53;;;17.20;99.90;;;;;;5099679;28;21009;-81
2022/08/02 00:41:47;;;;;;;4.87;3.37;;;17.20;99.90;;;;;;5080433;28;20483;-79
2022/08/02 00:44:14;;;;;;;8.50;3.20;;;17.20;99.90;;;;;;5094978;28;20481;-79
2022/08/02 00:46:41;;;;;;;5.40;3.40;;;17.20;99.90;;;;;;5095730;28;20480;-77
2022/08/02 00:49:08;;;;;;;3.73;3.10;;;17.20;99.90;;;;;;5095999;28;20518;-77
2022/08/02 00:51:36;;;;;;;4.90;3.87;;;17.20;99.90;;;;;;5094974;28;20450;-78
2022/08/02 00:54:04;;;;;;;4.90;3.60;;;17.10;99.90;;;;;;5094453;28;20927;-80
2022/08/02 00:56:31;;;;;;;3.47;3.17;;;17.10;99.90;;;;;;5095612;28;20549;-78
2022/08/02 00:58:57;;;;;;;3.87;3.03;;;17.10;99.90;;;;;;5095731;28;20477;-79
2022/08/02 01:01:37;;;;;;;6.40;3.53;;;17.10;99.90;;;;;;5095588;28;20530;-78
2022/08/02 01:04:04;;;;;;;6.53;3.27;;;17.10;99.90;;;;;;5092858;28;20480;-79
2022/08/02 01:06:32;;;;;;;5.23;3.00;;;16.90;99.90;;;;;;5094702;28;20491;-79
2022/08/02 01:09:01;;;;;;;5.60;3.57;;;16.90;99.90;;;;;;5093964;28;20450;-78
2022/08/02 01:11:28;;;;;;;5.00;3.50;;;16.90;99.90;;;;;;5091690;28;20461;-79
2022/08/02 01:13:59;;;;;;;4.57;3.83;;;16.90;99.90;;;;;;5092519;28;20501;-79
2022/08/02 01:16:30;;;;;;;5.87;3.03;;;16.90;99.90;;;;;;5094047;28;20532;-78
2022/08/02 01:19:06;;;;;;;4.47;3.00;;;17.00;99.90;;;;;;5094281;28;20961;-79
2022/08/02 01:21:47;;;;;;;5.07;3.10;;;17.00;99.90;;;;;;5092717;28;20540;-80
2022/08/02 01:24:30;;;;;;;4.10;3.20;;;16.90;99.90;;;;;;5081166;28;20481;-78
2022/08/02 01:27:06;;;;;;;4.73;2.93;;;16.90;99.90;;;;;;5093798;28;20489;-79
2022/08/02 01:29:41;;;;;;;4.43;3.27;;;16.90;99.90;;;;;;5093437;28;20466;-79
2022/08/02 01:32:11;;;;;;;5.63;3.40;;;16.90;99.90;;;;;;5094829;28;20559;-78
2022/08/02 01:34:42;;;;;;;4.97;3.30;;;16.90;99.90;;;;;;5093176;28;20553;-79
2022/08/02 01:37:14;;;;;;;6.70;3.20;;;16.90;99.90;;;;;;5102457;28;20455;-78
2022/08/02 01:39:43;;;;;;;4.37;3.00;;;16.90;99.90;;;;;;5079197;28;20446;-78
2022/08/02 01:42:16;;;;;;;5.80;3.30;;;16.90;99.90;;;;;;5093799;28;20456;-78
2022/08/02 01:44:45;;;;;;;4.13;3.53;;;16.90;99.90;;;;;;5093197;28;20576;-81
2022/08/02 01:47:17;;;;;;;5.97;2.83;;;16.80;99.90;;;;;;5092634;28;20540;-79
2022/08/02 01:49:46;;;;;;;5.77;3.10;;;16.80;99.90;;;;;;5084287;28;20458;-80
2022/08/02 01:52:25;;;;;;;5.40;2.90;;;16.90;99.90;;;;;;5096256;28;20447;-78
2022/08/02 01:54:57;;;;;;;4.93;2.80;;;16.80;99.90;;;;;;5095782;28;20484;-79
2022/08/02 01:57:27;;;;;;;4.33;3.40;;;16.80;99.90;;;;;;5095352;28;20818;-80
2022/08/02 01:59:59;;;;;;;7.00;3.43;;;16.80;99.90;;;;;;5095349;28;20479;-81
2022/08/02 02:02:27;;;;;;;5.40;2.90;;;16.80;99.90;;;;;;5094922;28;21002;-79
2022/08/02 02:04:56;;;;;;;4.47;3.23;;;16.80;99.90;;;;;;5093883;28;20538;-78
2022/08/02 02:07:23;;;;;;;3.70;3.07;;;16.80;99.90;;;;;;5094176;28;20543;-80
2022/08/02 02:09:51;;;;;;;5.70;3.13;;;16.80;99.90;;;;;;5094313;28;20957;-79
2022/08/02 02:12:19;;;;;;;5.23;3.50;;;16.80;99.90;;;;;;5094036;28;20522;-78
2022/08/02 02:14:46;;;;;;;5.63;3.20;;;16.80;99.90;;;;;;5093946;28;21011;-80
2022/08/02 02:17:16;;;;;;;4.50;2.80;;;16.80;99.90;;;;;;5094483;28;20478;-80
2022/08/02 02:19:45;;;;;;;3.67;2.83;;;16.80;99.90;;;;;;5093992;28;20489;-78
2022/08/02 02:22:12;;;;;;;3.63;3.23;;;16.80;99.90;;;;;;5101605;28;20477;-78
2022/08/02 02:24:39;;;;;;;4.43;3.70;;;16.80;99.90;;;;;;5094024;28;20593;-80
2022/08/02 02:27:08;;;;;;;4.10;2.97;;;16.70;99.90;;;;;;5098333;28;20540;-81
2022/08/02 02:29:37;;;;;;;3.40;2.87;;;16.70;99.90;;;;;;5094804;28;20548;-80
2022/08/02 02:32:06;;;;;;;5.87;3.77;;;16.70;99.90;;;;;;5095350;28;20508;-78
2022/08/02 02:34:37;;;;;;;5.27;3.20;;;16.70;99.90;;;;;;5089525;28;20545;-78
2022/08/02 02:37:08;;;;;;;4.43;3.10;;;16.70;99.90;;;;;;5096327;28;20451;-80
2022/08/02 02:39:37;;;;;;;6.37;3.47;;;16.60;99.90;;;;;;5104499;28;20457;-79
2022/08/02 02:42:08;;;;;;;6.17;3.50;;;16.60;99.90;;;;;;5097733;28;20508;-80
2022/08/02 02:44:38;;;;;;;7.13;3.47;;;16.60;99.90;;;;;;5091209;28;20480;-78
2022/08/02 02:47:06;;;;;;;5.03;3.60;;;16.60;99.90;;;;;;5099065;28;20992;-79
2022/08/02 02:49:36;;;;;;;5.90;4.30;;;16.60;99.90;;;;;;5099174;28;20454;-81
2022/08/02 02:52:04;;;;;;;5.30;3.57;;;16.60;99.90;;;;;;5099837;28;20534;-81
2022/08/02 02:54:32;;;;;;;5.07;2.90;;;16.50;99.90;;;;;;5099943;28;20479;-80
2022/08/02 02:57:01;;;;;;;5.17;4.50;;;16.50;99.90;;;;;;5101620;28;20794;-80
2022/08/02 02:59:28;;;;;;;3.60;3.30;;;16.50;99.90;;;;;;5100732;28;20481;-82
2022/08/02 03:01:56;;;;;;;6.87;3.70;;;16.50;99.90;;;;;;5100021;28;21050;-83
2022/08/02 03:04:24;;;;;;;5.63;3.77;;;16.50;99.90;;;;;;5099862;28;20553;-81
2022/08/02 03:06:53;;;;;;;3.77;3.33;;;16.40;99.90;;;;;;5101673;28;20481;-81
2022/08/02 03:09:20;;;;;;;5.80;3.17;;;16.50;99.90;;;;;;5100978;28;20491;-80
2022/08/02 03:11:47;;;;;;;6.17;3.20;;;16.50;99.90;;;;;;5100821;28;20457;-82
2022/08/02 03:14:14;;;;;;;5.87;3.70;;;16.50;99.90;;;;;;5099240;28;20502;-82
2022/08/02 03:16:45;;;;;;;4.10;3.20;;;16.40;99.90;;;;;;5100478;28;20474;-82
2022/08/02 03:19:12;;;;;;;7.23;3.43;;;16.50;99.90;;;;;;5101496;28;20902;-80
2022/08/02 03:21:39;;;;;;;6.67;4.57;;;16.40;99.90;;;;;;5097651;28;20545;-80
2022/08/02 03:24:08;;;;;;;4.63;3.43;;;16.40;99.90;;;;;;5097926;28;20572;-80
2022/08/02 03:26:36;;;;;;;6.23;3.93;;;16.40;99.90;;;;;;5097724;28;20481;-80
2022/08/02 03:29:03;;;;;;;4.33;3.03;;;16.40;99.90;;;;;;5078490;28;20506;-79
2022/08/02 03:31:30;;;;;;;4.23;3.47;;;16.40;99.90;;;;;;5088426;28;20499;-81
2022/08/02 03:33:59;;;;;;;4.97;3.40;;;16.40;99.90;;;;;;5098012;28;20484;-80
2022/08/02 03:36:28;;;;;;;4.40;3.40;;;16.30;99.90;;;;;;5099414;28;20531;-80
2022/08/02 03:38:57;;;;;;;4.90;3.40;;;16.30;99.90;;;;;;5099333;28;20957;-80
2022/08/02 03:41:26;;;;;;;3.77;3.07;;;16.30;99.90;;;;;;5098045;28;20449;-81
2022/08/02 03:43:54;;;;;;;6.67;3.70;;;16.40;99.90;;;;;;5098176;28;20491;-80
2022/08/02 03:46:23;;;;;;;4.30;3.47;;;16.40;99.90;;;;;;5099376;28;20581;-81
2022/08/02 03:48:51;;;;;;;6.07;3.30;;;16.30;99.90;;;;;;5098468;28;20472;-81
2022/08/02 03:51:19;;;;;;;6.20;3.50;;;16.30;99.90;;;;;;5098613;28;20552;-81
2022/08/02 03:53:47;;;;;;;5.37;3.87;;;16.30;99.90;;;;;;5098957;28;20485;-80
2022/08/02 03:56:15;;;;;;;9.43;3.80;;;16.30;99.90;;;;;;5105131;28;20963;-79
2022/08/02 03:58:43;;;;;;;4.90;4.00;;;16.30;99.90;;;;;;5110892;28;20452;-79
2022/08/02 04:01:10;;;;;;;4.40;3.40;;;16.30;99.90;;;;;;5110623;28;20449;-78
2022/08/02 04:03:37;;;;;;;4.80;3.50;;;16.30;99.90;;;;;;5109267;28;20564;-81
2022/08/02 04:06:04;;;;;;;4.50;3.43;;;16.30;99.90;;;;;;5111158;28;20481;-79
2022/08/02 04:08:31;;;;;;;4.20;3.70;;;16.30;99.90;;;;;;5101042;28;20523;-80
2022/08/02 04:13:43;;;;;;;4.13;3.10;;;16.30;99.90;;;;;;5098072;28;20449;-80
2022/08/02 04:16:14;;;;;;;7.30;4.43;;;16.30;99.90;;;;;;5099410;28;20863;-80
2022/08/02 04:18:46;;;;;;;6.00;4.10;;;16.30;99.90;;;;;;5099617;28;20481;-80
2022/08/02 04:21:16;;;;;;;4.93;3.20;;;16.30;99.90;;;;;;5104528;28;20538;-80
2022/08/02 04:23:46;;;;;;;4.60;3.63;;;16.30;99.90;;;;;;5112746;28;20473;-80
2022/08/02 04:26:14;;;;;;;5.10;4.03;;;16.40;99.90;;;;;;5097541;28;20560;-80
2022/08/02 04:28:43;;;;;;;6.17;4.13;;;16.30;99.90;;;;;;5099039;28;20484;-80
2022/08/02 04:31:10;;;;;;;5.77;3.80;;;16.40;99.90;;;;;;5098572;28;20485;-81
2022/08/02 04:33:38;;;;;;;6.47;4.50;;;16.40;99.90;;;;;;5097465;28;20504;-79
2022/08/02 04:36:06;;;;;;;5.20;3.97;;;16.50;99.90;;;;;;5098528;28;20901;-81
2022/08/02 04:38:33;;;;;;;6.33;4.00;;;16.50;99.90;;;;;;5099072;28;20899;-81
2022/08/02 04:41:00;;;;;;;8.33;4.63;;;16.50;99.90;;;;;;5098661;28;20485;-81
2022/08/02 04:43:27;;;;;;;5.20;4.43;;;16.60;99.90;;;;;;5098331;28;20496;-81
2022/08/02 04:45:55;;;;;;;5.40;4.40;;;16.60;99.90;;;;;;5098103;28;20572;-81
2022/08/02 04:48:23;;;;;;;6.30;4.50;;;16.70;99.90;;;;;;5098369;28;21021;-81
2022/08/02 04:50:50;;;;;;;6.53;4.57;;;16.70;99.90;;;;;;5098578;28;20812;-80
2022/08/02 04:53:17;;;;;;;5.90;4.30;;;16.70;99.90;;;;;;5097702;28;20564;-81
2022/08/02 04:55:44;;;;;;;4.93;4.20;;;16.80;99.90;;;;;;5097845;28;20849;-80
2022/08/02 04:58:11;;;;;;;5.00;4.17;;;16.80;99.90;;;;;;5098975;28;20488;-81
2022/08/02 05:00:38;;;;;;;7.73;4.57;;;16.90;99.90;;;;;;5098296;28;20517;-79
2022/08/02 05:03:06;;;;;;;5.87;4.80;;;16.90;99.90;;;;;;5098769;28;20555;-80
2022/08/02 05:05:33;;;;;;;5.63;5.03;;;17.00;99.90;;;;;;5098014;28;20485;-82
2022/08/02 05:08:00;;;;;;;5.93;4.43;;;17.10;99.90;;;;;;5098362;28;20448;-80
2022/08/02 05:10:27;;;;;;;7.77;5.13;;;17.10;99.90;;;;;;5098702;28;20489;-81
2022/08/02 05:12:54;;;;;;;7.57;4.80;;;17.20;99.90;;;;;;5097231;28;20562;-82
2022/08/02 05:15:20;;;;;;;5.20;4.70;;;17.20;99.90;;;;;;5098738;28;20528;-81
2022/08/02 05:17:48;;;;;;;8.73;4.80;;;17.20;99.90;;;;;;5099523;28;20458;-79
2022/08/02 05:20:17;;;;;;;6.37;4.50;;;17.30;99.90;;;;;;5098420;28;20453;-80
2022/08/02 05:22:44;;;;;;;6.20;4.73;;;17.30;99.90;;;;;;5098299;28;20827;-81
2022/08/02 05:25:11;;;;;;;6.97;4.80;;;17.40;99.90;;;;;;5098124;28;20552;-80
2022/08/02 05:27:38;;;;;;;7.63;4.93;;;17.50;99.90;;;;;;5099562;28;20525;-82
2022/08/02 05:30:06;;;;;;;5.07;4.57;;;17.50;99.90;;;;;;5100092;28;20483;-81
2022/08/02 05:32:33;;;;;;;5.57;5.07;;;17.60;99.90;;;;;;5100493;28;20506;-81
2022/08/02 05:35:01;;;;;;;6.07;4.60;;;17.60;99.90;;;;;;5099538;28;20459;-82
2022/08/02 05:37:30;;;;;;;5.90;5.00;;;17.60;99.90;;;;;;5100426;28;20832;-81
2022/08/02 05:39:57;;;;;;;7.23;5.03;;;17.60;99.90;;;;;;5099364;28;20481;-80
2022/08/02 05:42:24;;;;;;;5.67;4.87;;;17.70;99.90;;;;;;5100478;28;20489;-79
2022/08/02 05:44:51;;;;;;;7.63;4.80;;;17.80;99.90;;;;;;5099529;28;20476;-82
2022/08/02 05:47:18;;;;;;;8.13;5.03;;;17.90;99.90;;;;;;5100253;28;20548;-81
2022/08/02 05:49:45;;;;;;;6.90;4.77;;;18.00;99.90;;;;;;5099766;28;20971;-79
2022/08/02 05:52:16;;;;;;;5.93;4.90;;;18.10;99.90;;;;;;5097892;28;20477;-81
2022/08/02 05:54:49;;;;;;;7.43;4.70;;;18.20;99.90;;;;;;5097911;28;20472;-82
2022/08/02 05:57:26;;;;;;;5.17;4.57;;;18.40;99.90;;;;;;5097768;28;20456;-79
2022/08/02 06:00:06;;;;;;;6.80;4.93;;;18.40;99.90;;;;;;5098600;28;20553;-80
2022/08/02 06:02:44;;;;;;;6.10;3.90;;;18.50;99.90;;;;;;5097261;28;20454;-79
2022/08/02 06:05:12;;;;;;;5.23;4.67;;;18.60;99.90;;;;;;5099579;28;20465;-80
2022/08/02 06:07:43;;;;;;;8.03;5.73;;;18.70;99.90;;;;;;5099643;28;20498;-80
2022/08/02 06:10:13;;;;;;;5.70;5.00;;;18.80;99.90;;;;;;5099245;28;20488;-80
2022/08/02 06:12:46;;;;;;;6.87;4.90;;;18.80;99.90;;;;;;5101945;28;20540;-81
2022/08/02 06:15:14;;;;;;;7.53;4.33;;;18.80;99.90;;;;;;5102720;28;20454;-79
2022/08/02 06:17:42;;;;;;;8.30;6.40;;;18.90;99.90;;;;;;5102235;28;20456;-80
2022/08/02 06:20:11;;;;;;;7.13;5.30;;;18.90;99.90;;;;;;5102868;28;20450;-81
2022/08/02 06:22:42;;;;;;;5.30;4.80;;;19.00;99.90;;;;;;5104584;28;20956;-80
2022/08/02 06:25:13;;;;;;;7.40;4.50;;;19.20;99.90;;;;;;5099993;28;20518;-81
2022/08/02 06:27:42;;;;;;;8.20;5.03;;;19.20;99.90;;;;;;5098835;28;20486;-79
2022/08/02 06:30:10;;;;;;;7.07;4.77;;;19.40;99.90;;;;;;5098556;28;20457;-80
2022/08/02 06:32:37;;;;;;;7.10;5.10;;;19.40;99.90;;;;;;5093846;28;20447;-80
2022/08/02 06:35:08;;;;;;;6.70;3.70;;;19.50;99.90;;;;;;5092737;28;21187;-79
2022/08/02 06:37:41;;;;;;;7.73;5.57;;;19.60;99.90;;;;;;5089692;28;20462;-80
2022/08/02 06:40:14;;;;;;;8.93;5.30;;;19.60;99.90;;;;;;5090398;28;20449;-80
2022/08/02 06:42:49;;;;;;;6.47;4.27;;;19.60;99.90;;;;;;5092311;28;20882;-80
2022/08/02 06:45:19;;;;;;;6.47;4.80;;;19.70;99.90;;;;;;5090013;28;20820;-79
2022/08/02 06:47:46;;;;;;;8.67;4.80;;;19.80;99.90;;;;;;5089703;28;20473;-82
2022/08/02 06:50:14;;;;;;;7.10;4.43;;;20.00;99.90;;;;;;5096500;28;20465;-79
2022/08/02 06:52:41;;;;;;;8.27;4.20;;;20.00;99.90;;;;;;5101639;28;20515;-82
2022/08/02 06:55:09;;;;;;;5.43;3.70;;;20.10;99.90;;;;;;5086445;28;20451;-81
2022/08/02 06:57:37;;;;;;;21.17;13.30;;;20.20;99.90;;;;;;5092381;28;21048;-81
2022/08/02 07:00:07;;;;;;;15.93;9.50;;;20.30;99.90;;;;;;5095085;28;20519;-80
2022/08/02 07:02:54;;;;;;;7.43;5.30;;;20.40;99.90;;;;;;5094800;28;20455;-79
2022/08/02 07:05:21;;;;;;;5.97;4.13;;;20.50;99.90;;;;;;5097054;28;20515;-81
2022/08/02 07:07:51;;;;;;;5.23;3.53;;;20.50;99.90;;;;;;5102195;28;20565;-80
2022/08/02 07:10:18;;;;;;;8.63;3.90;;;20.50;99.90;;;;;;5095257;28;20485;-81
2022/08/02 07:12:46;;;;;;;4.63;3.23;;;20.60;99.90;;;;;;5099658;28;20511;-81
2022/08/02 07:15:15;;;;;;;4.40;3.20;;;20.70;99.90;;;;;;5105240;28;20507;-80
2022/08/02 07:17:42;;;;;;;9.10;3.80;;;20.80;99.90;;;;;;5098804;28;20469;-80
2022/08/02 07:20:09;;;;;;;6.00;2.77;;;20.90;99.90;;;;;;5099472;28;20492;-81
2022/08/02 07:22:37;;;;;;;5.70;3.30;;;21.00;99.90;;;;;;5098417;28;20458;-79
2022/08/02 07:25:04;;;;;;;5.30;3.50;;;20.90;99.90;;;;;;5093935;28;20506;-80
2022/08/02 07:27:32;;;;;;;4.33;2.23;;;20.90;99.90;;;;;;5098962;28;20896;-81
2022/08/02 07:30:01;;;;;;;5.53;2.97;;;21.10;99.90;;;;;;5096903;28;20537;-83
2022/08/02 07:32:30;;;;;;;6.23;2.40;;;21.10;99.90;;;;;;5100383;28;20454;-79
2022/08/02 07:34:58;;;;;;;4.67;2.50;;;21.20;99.90;;;;;;5096510;28;20454;-81
2022/08/02 07:37:29;;;;;;;5.13;2.80;;;21.30;99.90;;;;;;5097343;28;20529;-80
2022/08/02 07:39:56;;;;;;;5.10;2.73;;;21.40;99.90;;;;;;5098116;28;20450;-81
2022/08/02 07:42:23;;;;;;;5.00;3.30;;;21.40;99.90;;;;;;5098086;28;21072;-79
2022/08/02 07:44:50;;;;;;;6.60;2.90;;;21.40;99.90;;;;;;5096569;28;20498;-82
2022/08/02 07:47:18;;;;;;;8.67;2.60;;;21.50;99.90;;;;;;5096902;28;20527;-79
2022/08/02 07:49:45;;;;;;;5.67;3.00;;;21.40;99.90;;;;;;5097888;28;20434;-82
2022/08/02 07:52:12;;;;;;;3.70;2.90;;;21.50;99.90;;;;;;5104317;28;20488;-80
2022/08/02 07:54:39;;;;;;;8.23;2.80;;;21.60;99.90;;;;;;5104185;28;21222;-79
2022/08/02 07:57:06;;;;;;;8.60;2.50;;;21.60;99.90;;;;;;5088187;28;20450;-79
2022/08/02 07:59:33;;;;;;;6.60;3.00;;;21.70;99.90;;;;;;5094533;28;20481;-79
2022/08/02 08:02:00;;;;;;;4.17;2.70;;;21.90;99.90;;;;;;5092742;28;20458;-78
2022/08/02 08:04:28;;;;;;;4.80;2.07;;;21.80;99.90;;;;;;5095419;28;21024;-78
2022/08/02 08:06:56;;;;;;;2.93;2.23;;;21.80;99.90;;;;;;5089931;28;20491;-78
2022/08/02 08:09:23;;;;;;;5.23;2.07;;;22.00;99.90;;;;;;5099211;28;20545;-79
2022/08/02 08:11:50;;;;;;;3.57;3.17;;;22.10;99.90;;;;;;5097447;28;20540;-77
2022/08/02 08:14:16;;;;;;;5.37;2.60;;;22.20;99.90;;;;;;5093572;28;20560;-79
2022/08/02 08:16:44;;;;;;;5.77;2.30;;;22.30;99.90;;;;;;5093611;28;20542;-79
2022/08/02 08:19:10;;;;;;;3.90;2.40;;;22.40;99.90;;;;;;5094146;28;20450;-79
2022/08/02 08:21:39;;;;;;;5.50;2.47;;;22.50;99.90;;;;;;5096158;28;20525;-78
2022/08/02 08:24:06;;;;;;;4.17;2.07;;;22.70;99.90;;;;;;5110999;28;20465;-77
2022/08/02 08:26:33;;;;;;;4.57;1.80;;;22.80;99.90;;;;;;5096292;28;20508;-79
2022/08/02 08:29:00;;;;;;;3.73;2.03;;;22.80;99.90;;;;;;5094785;28;20548;-79
2022/08/02 08:31:27;;;;;;;3.40;1.90;;;22.90;99.90;;;;;;5094951;28;20480;-79
2022/08/02 08:33:55;;;;;;;3.33;1.87;;;23.00;99.90;;;;;;5093242;28;20469;-77
2022/08/02 08:36:22;;;;;;;2.87;1.70;;;23.00;99.90;;;;;;5102894;28;20527;-78
2022/08/02 08:38:50;;;;;;;2.93;1.70;;;23.30;99.90;;;;;;5094777;28;20984;-78
2022/08/02 08:41:18;;;;;;;3.63;1.80;;;23.50;99.90;;;;;;5094688;28;20450;-80
2022/08/02 08:43:50;;;;;;;4.40;2.33;;;23.60;99.90;;;;;;5090857;28;20559;-80
2022/08/02 08:46:26;;;;;;;5.10;1.63;;;23.90;99.90;;;;;;5094296;28;20458;-80
2022/08/02 08:48:56;;;;;;;4.40;1.60;;;24.00;99.90;;;;;;5091670;28;20455;-79
2022/08/02 08:51:30;;;;;;;2.90;1.50;;;24.00;99.90;;;;;;5092572;28;20546;-78
2022/08/02 08:54:03;;;;;;;2.30;1.17;;;24.20;99.90;;;;;;5089672;28;20474;-80
2022/08/02 08:56:34;;;;;;;3.10;1.40;;;24.50;99.90;;;;;;5093077;28;20462;-79
2022/08/02 08:59:02;;;;;;;5.57;1.90;;;24.70;99.90;;;;;;5092604;28;20454;-80
2022/08/02 09:01:30;;;;;;;3.20;1.50;;;24.70;99.90;;;;;;5095019;28;20458;-79
2022/08/02 09:03:57;;;;;;;3.90;1.73;;;24.70;99.90;;;;;;5098808;28;20490;-82
2022/08/02 09:06:24;;;;;;;4.23;2.13;;;24.80;99.90;;;;;;5103956;28;21008;-79
2022/08/02 09:08:51;;;;;;;2.30;1.40;;;25.00;99.90;;;;;;5119004;28;20478;-81
2022/08/02 09:11:23;;;;;;;2.30;1.40;;;25.00;99.90;;;;;;5104818;28;20488;-78
2022/08/02 09:13:52;;;;;;;3.00;1.63;;;25.40;99.90;;;;;;5103783;28;20481;-79
2022/08/02 09:16:31;;;;;;;4.10;1.87;;;25.70;99.90;;;;;;5103685;28;20976;-81
2022/08/02 09:18:59;;;;;;;3.50;1.60;;;25.90;99.90;;;;;;5111084;28;20488;-80
2022/08/02 09:21:35;;;;;;;5.53;1.93;;;26.00;99.90;;;;;;5114212;28;20553;-79
2022/08/02 09:24:02;;;;;;;3.37;2.00;;;26.10;99.90;;;;;;5104464;28;20533;-80
2022/08/02 09:26:30;;;;;;;4.40;2.10;;;26.20;99.90;;;;;;5104375;28;20468;-79
2022/08/02 09:29:02;;;;;;;3.27;1.80;;;26.40;99.90;;;;;;5106067;28;21023;-81
2022/08/02 09:31:29;;;;;;;3.30;2.10;;;26.40;99.90;;;;;;5105766;28;20458;-80
2022/08/02 09:33:57;;;;;;;4.67;2.37;;;26.40;99.90;;;;;;5106011;28;20480;-81
2022/08/02 09:36:25;;;;;;;2.73;1.80;;;26.60;99.90;;;;;;5105056;28;20446;-80
2022/08/02 09:38:55;;;;;;;4.00;2.20;;;26.90;99.90;;;;;;5093774;28;20481;-80
2022/08/02 09:41:23;;;;;;;6.20;2.00;;;27.00;99.90;;;;;;5083963;28;20929;-81
2022/08/02 09:43:52;;;;;;;3.23;2.33;;;27.50;99.90;;;;;;5104103;28;20466;-80
2022/08/02 09:46:21;;;;;;;6.13;2.30;;;27.40;99.90;;;;;;5106625;28;20479;-80
2022/08/02 09:48:53;;;;;;;3.03;2.10;;;27.40;99.90;;;;;;5107663;28;20505;-79
2022/08/02 09:51:23;;;;;;;2.60;1.77;;;27.70;99.90;;;;;;5106717;28;20477;-80
2022/08/02 09:53:52;;;;;;;3.17;2.33;;;27.80;99.90;;;;;;5106237;28;20502;-80
2022/08/02 09:56:20;;;;;;;4.30;2.20;;;27.90;99.90;;;;;;5100271;28;20474;-79
2022/08/02 09:58:48;;;;;;;3.10;2.03;;;28.00;99.90;;;;;;5093188;28;20473;-79
2022/08/02 10:01:16;;;;;;;4.33;2.60;;;28.10;99.90;;;;;;5103693;28;20457;-80
2022/08/02 10:03:58;;;;;;;3.63;2.43;;;28.20;99.90;;;;;;5103924;28;20505;-80
2022/08/02 10:06:26;;;;;;;2.93;2.33;;;28.10;99.90;;;;;;5104623;28;20470;-80
2022/08/02 10:08:54;;;;;;;2.60;2.10;;;27.60;99.90;;;;;;5103336;28;20545;-83
2022/08/02 10:11:21;;;;;;;3.50;2.30;;;27.30;99.90;;;;;;5106748;28;20476;-81
2022/08/02 10:13:50;;;;;;;3.73;1.70;;;27.00;99.90;;;;;;5107341;28;20450;-80
2022/08/02 10:16:22;;;;;;;5.43;2.43;;;27.20;99.90;;;;;;5109987;28;20472;-83
2022/08/02 10:18:50;;;;;;;3.60;2.43;;;27.30;99.90;;;;;;5110040;28;20467;-82
2022/08/02 10:21:22;;;;;;;3.73;2.57;;;27.40;99.90;;;;;;5108829;28;20450;-81
2022/08/02 10:23:51;;;;;;;3.60;2.30;;;27.60;99.90;;;;;;5112341;28;20462;-79
2022/08/02 10:26:20;;;;;;;4.10;2.30;;;27.80;99.90;;;;;;5113593;28;20468;-81
2022/08/02 10:28:49;;;;;;;3.73;2.27;;;28.10;99.90;;;;;;5104839;28;20508;-80
2022/08/02 10:31:23;;;;;;;7.10;2.47;;;28.30;99.90;;;;;;5109069;28;20521;-81
2022/08/02 10:33:52;;;;;;;4.47;2.60;;;28.30;99.90;;;;;;5107590;28;20473;-82
2022/08/02 10:36:22;;;;;;;5.33;2.43;;;28.60;99.90;;;;;;5106161;28;21021;-81
2022/08/02 10:38:49;;;;;;;4.60;2.10;;;28.90;99.90;;;;;;5103094;28;20465;-80
2022/08/02 10:41:46;;;;;;;4.03;2.20;;;29.00;99.90;;;;;;5107528;28;20451;-81
2022/08/02 10:44:25;;;;;;;4.00;2.83;;;28.90;99.90;;;;;;5102331;28;20506;-80
2022/08/02 10:47:20;;;;;;;3.80;2.90;;;28.80;99.90;;;;;;5107444;28;20446;-82
2022/08/02 10:49:51;;;;;;;4.00;2.77;;;29.00;99.90;;;;;;5101579;28;20472;-80
2022/08/02 10:52:18;;;;;;;4.50;3.17;;;29.30;99.90;;;;;;5105690;28;20454;-80
2022/08/02 10:54:49;;;;;;;5.07;2.57;;;29.40;99.90;;;;;;5104482;28;20461;-81
2022/08/02 10:57:19;;;;;;;5.20;2.50;;;29.50;99.90;;;;;;5107734;28;20449;-81
2022/08/02 10:59:48;;;;;;;3.33;2.77;;;29.90;99.90;;;;;;5107822;28;20540;-80
2022/08/02 11:02:37;;;;;;;3.07;2.47;;;29.80;99.90;;;;;;5109469;28;20465;-81
2022/08/02 11:05:10;;;;;;;4.30;2.77;;;29.50;99.90;;;;;;5102891;28;20457;-81
2022/08/02 11:07:39;;;;;;;6.90;2.40;;;29.90;99.90;;;;;;5104347;28;20481;-81
2022/08/02 11:10:42;;;;;;;3.80;2.60;;;30.00;99.90;;;;;;5099476;28;20454;-79
2022/08/02 11:13:13;;;;;;;4.47;2.73;;;30.00;99.90;;;;;;5097877;28;20500;-82
2022/08/02 11:16:01;;;;;;;6.77;2.80;;;29.40;99.90;;;;;;5105510;28;20450;-80
2022/08/02 11:19:01;;;;;;;6.03;3.60;;;29.20;99.90;;;;;;5106793;28;20441;-81
2022/08/02 11:21:31;;;;;;;5.03;3.40;;;28.60;99.90;;;;;;5106033;28;20486;-81
2022/08/02 11:24:26;;;;;;;7.10;3.27;;;28.80;99.90;;;;;;5104778;28;22272;-82
2022/08/02 11:26:53;;;;;;;5.53;3.10;;;29.00;99.90;;;;;;5104949;28;20457;-80
2022/08/02 11:29:20;;;;;;;4.33;2.80;;;29.80;99.90;;;;;;5103269;28;20535;-81
2022/08/02 11:31:47;;;;;;;7.00;3.00;;;29.50;99.90;;;;;;5102881;28;20572;-81
2022/08/02 11:34:16;;;;;;;3.17;2.43;;;29.80;99.90;;;;;;5088324;28;20474;-82
2022/08/02 11:36:46;;;;;;;3.40;2.10;;;30.10;99.90;;;;;;5105042;28;20477;-79
2022/08/02 11:39:14;;;;;;;6.50;2.80;;;29.90;99.90;;;;;;5103703;28;20455;-81
2022/08/02 11:41:41;;;;;;;3.67;2.67;;;29.60;99.90;;;;;;5103219;28;20462;-83
2022/08/02 11:44:08;;;;;;;3.53;2.87;;;29.30;99.90;;;;;;5102128;28;20501;-78
2022/08/02 11:46:36;;;;;;;3.17;2.23;;;28.90;99.90;;;;;;5099081;28;20450;-79
2022/08/02 11:49:21;;;;;;;4.23;2.80;;;28.60;99.90;;;;;;5105086;28;20487;-80
2022/08/02 11:51:59;;;;;;;12.77;3.20;;;28.70;99.90;;;;;;5085689;28;20447;-79
2022/08/02 11:54:29;;;;;;;4.90;2.80;;;28.80;99.90;;;;;;5098613;28;20574;-80
2022/08/02 11:57:08;;;;;;;4.33;2.57;;;29.20;99.90;;;;;;5104193;28;20442;-82
2022/08/02 11:59:37;;;;;;;5.30;2.57;;;28.80;99.90;;;;;;5102742;28;20464;-80
2022/08/02 12:02:05;;;;;;;4.40;2.50;;;28.90;99.90;;;;;;5096521;28;20446;-80
2022/08/02 12:04:32;;;;;;;5.83;2.60;;;29.20;99.90;;;;;;5103717;28;20474;-81
2022/08/02 12:07:04;;;;;;;3.37;1.90;;;29.60;99.90;;;;;;5103132;28;20468;-80
2022/08/02 12:09:33;;;;;;;3.13;2.17;;;29.80;99.90;;;;;;5098285;28;20478;-81
2022/08/02 12:12:03;;;;;;;4.40;2.10;;;29.60;99.90;;;;;;5105522;28;20447;-81
2022/08/02 12:14:31;;;;;;;4.57;2.10;;;29.70;99.90;;;;;;5101579;28;20974;-82
2022/08/02 12:19:43;;;;;;;2.80;2.07;;;29.10;99.90;;;;;;5103629;28;20429;-82
2022/08/02 12:22:14;;;;;;;3.77;2.10;;;29.00;99.90;;;;;;5104797;28;20487;-80
2022/08/02 12:24:43;;;;;;;4.60;2.10;;;28.70;99.90;;;;;;5109394;28;20500;-79
2022/08/02 12:27:27;;;;;;;3.67;2.00;;;29.10;99.90;;;;;;5107521;28;20449;-81
2022/08/02 12:30:01;;;;;;;4.80;2.07;;;29.60;99.90;;;;;;5097765;28;20561;-78
2022/08/02 12:32:28;;;;;;;3.53;1.73;;;29.80;99.90;;;;;;5100285;28;20455;-81
2022/08/02 12:35:03;;;;;;;3.90;2.00;;;30.50;99.90;;;;;;5100281;28;20475;-80
2022/08/02 12:37:31;;;;;;;3.00;1.70;;;30.90;99.90;;;;;;5101128;28;20481;-81
2022/08/02 12:39:58;;;;;;;2.77;1.83;;;30.90;99.90;;;;;;5098101;28;21059;-81
2022/08/02 12:42:25;;;;;;;2.97;1.80;;;30.80;99.90;;;;;;5101819;28;20473;-79
2022/08/02 12:44:54;;;;;;;2.60;1.70;;;31.00;99.90;;;;;;5100502;28;21066;-80
2022/08/02 12:47:21;;;;;;;4.80;1.70;;;31.20;99.90;;;;;;5095935;28;20463;-81
2022/08/02 12:50:13;;;;;;;3.10;1.60;;;31.10;99.90;;;;;;5102584;28;20489;-81
2022/08/02 12:52:41;;;;;;;4.23;1.80;;;31.10;99.90;;;;;;5098811;28;20458;-80
2022/08/02 12:55:17;;;;;;;4.00;1.63;;;31.20;99.90;;;;;;5100423;28;20470;-82
2022/08/02 12:57:52;;;;;;;3.07;1.83;;;31.10;99.90;;;;;;5099530;28;20532;-80
2022/08/02 13:00:25;;;;;;;3.70;2.10;;;31.20;99.90;;;;;;5102220;28;20418;-79
2022/08/02 13:02:53;;;;;;;3.70;1.77;;;30.90;99.90;;;;;;5098087;28;20572;-80